createdAt,value
2018-09-01T00:00:42.916Z,99.99
2018-09-01T00:01:42.915Z,99.99
2018-09-01T00:02:42.957Z,99.99
2018-09-01T00:03:42.920Z,99.99
2018-09-01T00:04:42.913Z,99.99
2018-09-01T00:05:42.925Z,99.99
2018-09-01T00:06:42.924Z,99.99
2018-09-01T00:07:42.941Z,99.99
2018-09-01T00:08:42.914Z,99.99
2018-09-01T00:09:42.913Z,99.99
2018-09-01T00:10:42.911Z,99.99
2018-09-01T00:11:42.909Z,99.99
2018-09-01T00:12:42.933Z,99.99
2018-09-01T00:13:42.897Z,99.99
2018-09-01T00:14:42.902Z,99.99
2018-09-01T00:15:42.898Z,99.99
2018-09-01T00:16:42.894Z,99.99
2018-09-01T00:17:42.922Z,99.99
2018-09-01T00:18:42.892Z,99.99
2018-09-01T00:19:42.895Z,99.99
2018-09-01T00:20:42.895Z,99.99
2018-09-01T00:21:42.884Z,99.99
2018-09-01T00:22:42.920Z,99.99
2018-09-01T00:23:42.881Z,99.99
2018-09-01T00:24:42.883Z,99.99
2018-09-01T00:25:42.888Z,99.99
2018-09-01T00:26:42.878Z,99.99
2018-09-01T00:27:42.908Z,99.99
2018-09-01T00:28:42.880Z,99.99
2018-09-01T00:29:42.872Z,99.99
2018-09-01T00:30:42.879Z,99.99
2018-09-01T00:31:42.866Z,99.99
2018-09-01T00:32:42.886Z,99.99
2018-09-01T00:33:42.857Z,99.99
2018-09-01T00:34:42.866Z,99.99
2018-09-01T00:35:42.854Z,99.99
2018-09-01T00:36:42.861Z,99.99
2018-09-01T00:37:42.886Z,99.99
2018-09-01T00:38:42.852Z,99.99
2018-09-01T00:39:42.847Z,99.99
2018-09-01T00:40:42.841Z,99.99
2018-09-01T00:41:42.842Z,99.99
2018-09-01T00:42:42.875Z,99.99
2018-09-01T00:43:42.834Z,99.99
2018-09-01T00:44:42.838Z,99.99
2018-09-01T00:45:42.846Z,99.99
2018-09-01T00:46:42.833Z,99.99
2018-09-01T00:47:42.863Z,99.99
2018-09-01T00:48:42.827Z,99.99
2018-09-01T00:49:42.835Z,99.99
2018-09-01T00:50:42.830Z,99.99
2018-09-01T00:51:42.822Z,99.99
2018-09-01T00:52:42.858Z,99.99
2018-09-01T00:53:42.822Z,99.99
2018-09-01T00:54:42.821Z,99.99
2018-09-01T00:55:42.813Z,99.99
2018-09-01T00:56:42.806Z,99.99
2018-09-01T00:57:42.848Z,99.99
2018-09-01T00:58:42.804Z,99.99
2018-09-01T00:59:42.798Z,99.99
2018-09-01T01:00:42.794Z,99.99
2018-09-01T01:01:42.795Z,99.99
2018-09-01T01:02:42.824Z,99.99
2018-09-01T01:03:42.786Z,99.99
2018-09-01T01:04:42.788Z,99.99
2018-09-01T01:05:42.792Z,99.99
2018-09-01T01:06:42.780Z,99.99
2018-09-01T01:07:42.814Z,99.99
2018-09-01T01:08:42.783Z,99.99
2018-09-01T01:09:42.779Z,99.99
2018-09-01T01:10:42.777Z,99.99
2018-09-01T01:11:42.780Z,99.99
2018-09-01T01:12:42.812Z,99.99
2018-09-01T01:13:42.766Z,99.99
2018-09-01T01:14:42.767Z,99.99
2018-09-01T01:15:42.766Z,99.99
2018-09-01T01:16:42.771Z,99.99
2018-09-01T01:17:42.791Z,99.99
2018-09-01T01:18:42.759Z,99.99
2018-09-01T01:19:42.752Z,99.99
2018-09-01T01:20:42.746Z,99.99
2018-09-01T01:21:42.751Z,99.99
2018-09-01T01:22:42.770Z,99.99
2018-09-01T01:23:42.741Z,99.99
2018-09-01T01:24:42.742Z,99.99
2018-09-01T01:25:42.738Z,99.99
2018-09-01T01:26:42.768Z,99.99
2018-09-01T01:27:42.735Z,99.99
2018-09-01T01:28:42.740Z,99.99
2018-09-01T01:29:42.721Z,99.99
2018-09-01T01:30:42.723Z,99.99
2018-09-01T01:31:42.749Z,99.99
2018-09-01T01:32:42.724Z,99.99
2018-09-01T01:33:42.722Z,99.99
2018-09-01T01:34:42.721Z,99.99
2018-09-01T01:35:42.710Z,99.99
2018-09-01T01:36:42.739Z,99.99
2018-09-01T01:37:42.705Z,99.99
2018-09-01T01:38:42.705Z,99.99
2018-09-01T01:39:42.700Z,99.99
2018-09-01T01:40:42.699Z,99.99
2018-09-01T01:41:42.721Z,99.99
2018-09-01T01:42:42.700Z,99.99
2018-09-01T01:43:42.689Z,99.99
2018-09-01T01:44:42.695Z,99.99
2018-09-01T01:45:42.687Z,99.99
2018-09-01T01:46:42.728Z,99.99
2018-09-01T01:47:42.676Z,99.99
2018-09-01T01:48:42.686Z,99.99
2018-09-01T01:49:42.733Z,99.99
2018-09-01T01:50:42.678Z,99.99
2018-09-01T01:51:42.696Z,99.99
2018-09-01T01:52:42.668Z,99.99
2018-09-01T01:53:42.667Z,99.99
2018-09-01T01:54:42.668Z,99.99
2018-09-01T01:55:42.668Z,99.99
2018-09-01T01:56:42.685Z,99.99
2018-09-01T01:57:42.653Z,99.99
2018-09-01T01:58:42.652Z,99.99
2018-09-01T01:59:42.645Z,99.99
2018-09-01T02:00:42.645Z,99.99
2018-09-01T02:01:42.669Z,99.99
2018-09-01T02:02:42.645Z,99.99
2018-09-01T02:03:42.633Z,99.99
2018-09-01T02:04:42.633Z,99.99
2018-09-01T02:05:42.637Z,99.99
2018-09-01T02:06:42.654Z,99.99
2018-09-01T02:07:42.627Z,99.99
2018-09-01T02:08:42.621Z,99.99
2018-09-01T02:09:42.621Z,99.99
2018-09-01T02:10:42.618Z,99.99
2018-09-01T02:11:42.642Z,99.99
2018-09-01T02:12:42.619Z,99.99
2018-09-01T02:13:42.616Z,99.99
2018-09-01T02:14:42.608Z,99.99
2018-09-01T02:15:42.600Z,99.99
2018-09-01T02:16:42.626Z,99.99
2018-09-01T02:17:42.597Z,99.99
2018-09-01T02:18:42.597Z,99.99
2018-09-01T02:19:42.591Z,99.99
2018-09-01T02:20:42.591Z,99.99
2018-09-01T02:21:42.614Z,99.99
2018-09-01T02:22:42.582Z,99.99
2018-09-01T02:23:42.582Z,99.99
2018-09-01T02:24:42.585Z,99.99
2018-09-01T02:25:42.630Z,99.99
2018-09-01T02:26:42.571Z,99.99
2018-09-01T02:27:42.564Z,99.99
2018-09-01T02:28:42.568Z,99.99
2018-09-01T02:29:42.562Z,99.99
2018-09-01T02:30:42.586Z,99.99
2018-09-01T02:31:42.565Z,99.99
2018-09-01T02:32:42.557Z,99.99
2018-09-01T02:33:42.552Z,99.99
2018-09-01T02:34:42.549Z,99.99
2018-09-01T02:35:42.578Z,99.99
2018-09-01T02:36:42.554Z,99.99
2018-09-01T02:37:42.540Z,99.99
2018-09-01T02:38:42.538Z,99.99
2018-09-01T02:39:42.535Z,99.99
2018-09-01T02:40:42.565Z,99.99
2018-09-01T02:41:42.665Z,99.99
2018-09-01T02:42:42.541Z,99.99
2018-09-01T02:43:42.524Z,99.99
2018-09-01T02:44:42.520Z,99.99
2018-09-01T02:45:42.552Z,99.99
2018-09-01T02:46:42.517Z,99.99
2018-09-01T02:47:42.505Z,99.99
2018-09-01T02:48:42.513Z,99.99
2018-09-01T02:49:42.502Z,99.99
2018-09-01T02:50:42.534Z,99.99
2018-09-01T02:51:42.524Z,99.99
2018-09-01T02:52:42.498Z,99.99
2018-09-01T02:53:42.495Z,99.99
2018-09-01T02:54:42.505Z,99.99
2018-09-01T02:55:42.522Z,99.99
2018-09-01T02:56:42.501Z,99.99
2018-09-01T02:57:42.494Z,99.99
2018-09-01T02:58:42.477Z,99.99
2018-09-01T02:59:42.481Z,99.99
2018-09-01T03:00:42.504Z,99.99
2018-09-01T03:01:42.483Z,99.99
2018-09-01T03:02:42.481Z,99.99
2018-09-01T03:03:42.504Z,99.99
2018-09-01T03:04:42.475Z,99.99
2018-09-01T03:05:42.501Z,99.99
2018-09-01T03:06:42.474Z,99.99
2018-09-01T03:07:42.477Z,99.99
2018-09-01T03:08:42.452Z,99.99
2018-09-01T03:09:42.449Z,99.99
2018-09-01T03:10:42.477Z,99.99
2018-09-01T03:11:42.452Z,99.99
2018-09-01T03:12:42.461Z,99.99
2018-09-01T03:13:42.429Z,99.99
2018-09-01T03:14:42.440Z,99.99
2018-09-01T03:15:42.467Z,99.99
2018-09-01T03:16:42.434Z,99.99
2018-09-01T03:17:42.428Z,99.99
2018-09-01T03:18:42.422Z,99.99
2018-09-01T03:19:42.441Z,99.99
2018-09-01T03:20:42.418Z,99.99
2018-09-01T03:21:42.590Z,99.99
2018-09-01T03:22:42.416Z,99.99
2018-09-01T03:23:42.405Z,99.99
2018-09-01T03:24:42.437Z,99.99
2018-09-01T03:25:42.395Z,99.99
2018-09-01T03:26:42.399Z,99.99
2018-09-01T03:27:42.395Z,99.99
2018-09-01T03:28:42.386Z,99.99
2018-09-01T03:29:42.413Z,99.99
2018-09-01T03:30:42.388Z,99.99
2018-09-01T03:31:42.383Z,99.99
2018-09-01T03:32:42.375Z,99.99
2018-09-01T03:33:42.377Z,99.99
2018-09-01T03:34:42.399Z,99.99
2018-09-01T03:35:42.364Z,99.99
2018-09-01T03:36:42.372Z,99.99
2018-09-01T03:37:42.361Z,99.99
2018-09-01T03:38:42.352Z,99.99
2018-09-01T03:39:42.383Z,99.99
2018-09-01T03:40:42.347Z,99.99
2018-09-01T03:41:42.353Z,99.99
2018-09-01T03:42:42.345Z,99.99
2018-09-01T03:43:42.340Z,99.99
2018-09-01T03:44:42.364Z,99.99
2018-09-01T03:45:42.332Z,99.99
2018-09-01T03:46:42.334Z,99.99
2018-09-01T03:47:42.329Z,99.99
2018-09-01T03:48:42.332Z,99.99
2018-09-01T03:49:42.348Z,99.99
2018-09-01T03:50:42.317Z,99.99
2018-09-01T03:51:42.314Z,99.99
2018-09-01T03:52:42.313Z,99.99
2018-09-01T03:53:42.307Z,99.99
2018-09-01T03:54:42.334Z,99.99
2018-09-01T03:55:42.304Z,99.99
2018-09-01T03:56:42.297Z,99.99
2018-09-01T03:57:42.295Z,99.99
2018-09-01T03:58:42.291Z,99.99
2018-09-01T03:59:42.322Z,99.99
2018-09-01T04:00:42.320Z,99.99
2018-09-01T04:01:42.280Z,99.99
2018-09-01T04:02:42.282Z,99.99
2018-09-01T04:03:42.275Z,99.99
2018-09-01T04:04:42.271Z,99.99
2018-09-01T04:05:42.302Z,99.99
2018-09-01T04:06:42.273Z,99.99
2018-09-01T04:07:42.265Z,99.99
2018-09-01T04:08:42.269Z,99.99
2018-09-01T04:09:42.256Z,99.99
2018-09-01T04:10:42.289Z,99.99
2018-09-01T04:11:42.247Z,99.99
2018-09-01T04:12:42.240Z,99.99
2018-09-01T04:13:42.245Z,99.99
2018-09-01T04:14:42.238Z,99.99
2018-09-01T04:15:42.265Z,99.99
2018-09-01T04:16:42.231Z,99.99
2018-09-01T04:17:42.226Z,99.99
2018-09-01T04:18:42.225Z,99.99
2018-09-01T04:19:42.220Z,99.99
2018-09-01T04:20:42.247Z,99.99
2018-09-01T04:21:42.217Z,99.99
2018-09-01T04:22:42.213Z,99.99
2018-09-01T04:23:42.211Z,99.99
2018-09-01T04:24:42.205Z,99.99
2018-09-01T04:25:42.228Z,99.99
2018-09-01T04:26:42.201Z,99.99
2018-09-01T04:27:42.193Z,99.99
2018-09-01T04:28:42.192Z,99.99
2018-09-01T04:29:42.185Z,99.99
2018-09-01T04:30:42.211Z,99.99
2018-09-01T04:31:42.209Z,99.99
2018-09-01T04:32:42.176Z,99.99
2018-09-01T04:33:42.178Z,99.99
2018-09-01T04:34:42.175Z,99.99
2018-09-01T04:35:42.167Z,99.99
2018-09-01T04:36:42.194Z,99.99
2018-09-01T04:37:42.168Z,99.99
2018-09-01T04:38:42.158Z,99.99
2018-09-01T04:39:42.157Z,99.99
2018-09-01T04:40:42.156Z,99.99
2018-09-01T04:41:42.382Z,99.99
2018-09-01T04:42:42.254Z,99.99
2018-09-01T04:43:42.144Z,99.99
2018-09-01T04:44:42.138Z,99.99
2018-09-01T04:45:42.164Z,99.99
2018-09-01T04:46:42.157Z,99.99
2018-09-01T04:47:42.135Z,99.99
2018-09-01T04:48:42.129Z,99.99
2018-09-01T04:49:42.122Z,99.99
2018-09-01T04:50:42.112Z,99.99
2018-09-01T04:51:42.136Z,99.99
2018-09-01T04:52:42.114Z,99.99
2018-09-01T04:53:42.108Z,99.99
2018-09-01T04:54:42.106Z,99.99
2018-09-01T04:55:42.101Z,99.99
2018-09-01T04:56:42.124Z,99.99
2018-09-01T04:57:42.095Z,99.99
2018-09-01T04:58:42.086Z,99.99
2018-09-01T04:59:42.089Z,99.99
2018-09-01T05:00:42.095Z,99.99
2018-09-01T05:01:42.110Z,99.99
2018-09-01T05:02:42.078Z,99.99
2018-09-01T05:03:42.069Z,99.99
2018-09-01T05:04:42.075Z,99.99
2018-09-01T05:05:42.090Z,99.99
2018-09-01T05:06:42.094Z,99.99
2018-09-01T05:07:42.060Z,99.99
2018-09-01T05:08:42.058Z,99.99
2018-09-01T05:09:42.055Z,99.99
2018-09-01T05:10:42.050Z,99.99
2018-09-01T05:11:42.083Z,99.99
2018-09-01T05:12:42.053Z,99.99
2018-09-01T05:13:42.045Z,99.99
2018-09-01T05:14:42.038Z,99.99
2018-09-01T05:15:42.035Z,99.99
2018-09-01T05:16:42.055Z,99.99
2018-09-01T05:17:42.031Z,99.99
2018-09-01T05:18:42.028Z,99.99
2018-09-01T05:19:42.024Z,99.99
2018-09-01T05:20:42.015Z,99.99
2018-09-01T05:21:42.048Z,99.99
2018-09-01T05:22:42.012Z,99.99
2018-09-01T05:23:42.011Z,99.99
2018-09-01T05:24:42.021Z,99.99
2018-09-01T05:25:42.003Z,99.99
2018-09-01T05:26:42.036Z,99.99
2018-09-01T05:27:41.998Z,99.99
2018-09-01T05:28:41.992Z,99.99
2018-09-01T05:29:42.006Z,99.99
2018-09-01T05:30:42.007Z,99.99
2018-09-01T05:31:42.012Z,99.99
2018-09-01T05:32:41.990Z,99.99
2018-09-01T05:33:41.985Z,99.99
2018-09-01T05:34:41.980Z,99.99
2018-09-01T05:35:41.976Z,99.99
2018-09-01T05:36:42.082Z,99.99
2018-09-01T05:37:41.974Z,99.99
2018-09-01T05:38:41.969Z,99.99
2018-09-01T05:39:41.961Z,99.99
2018-09-01T05:40:41.965Z,99.99
2018-09-01T05:41:41.993Z,99.99
2018-09-01T05:42:41.954Z,99.99
2018-09-01T05:43:41.997Z,99.99
2018-09-01T05:44:41.957Z,99.99
2018-09-01T05:45:41.949Z,99.99
2018-09-01T05:46:41.977Z,99.99
2018-09-01T05:47:41.941Z,99.99
2018-09-01T05:48:41.941Z,99.99
2018-09-01T05:49:41.937Z,99.99
2018-09-01T05:50:41.937Z,99.99
2018-09-01T05:51:41.958Z,99.99
2018-09-01T05:52:41.929Z,99.99
2018-09-01T05:53:41.922Z,99.99
2018-09-01T05:54:41.926Z,99.99
2018-09-01T05:55:41.925Z,99.99
2018-09-01T05:56:41.948Z,99.99
2018-09-01T05:57:41.920Z,99.99
2018-09-01T05:58:41.914Z,99.99
2018-09-01T05:59:41.910Z,99.99
2018-09-01T06:00:41.937Z,99.99
2018-09-01T06:01:41.944Z,99.99
2018-09-01T06:02:41.908Z,99.99
2018-09-01T06:03:41.909Z,99.99
2018-09-01T06:04:41.898Z,99.99
2018-09-01T06:05:41.898Z,99.99
2018-09-01T06:06:41.921Z,99.99
2018-09-01T06:07:41.889Z,99.99
2018-09-01T06:08:41.891Z,99.99
2018-09-01T06:09:41.898Z,99.99
2018-09-01T06:10:41.887Z,99.99
2018-09-01T06:11:41.911Z,99.99
2018-09-01T06:12:41.881Z,99.99
2018-09-01T06:13:41.875Z,98.47
2018-09-01T06:14:41.889Z,97.13
2018-09-01T06:15:41.876Z,95.65
2018-09-01T06:16:41.897Z,94.74
2018-09-01T06:17:41.986Z,93.50
2018-09-01T06:18:41.879Z,91.63
2018-09-01T06:19:41.872Z,90.20
2018-09-01T06:20:41.868Z,90.39
2018-09-01T06:21:41.904Z,92.93
2018-09-01T06:22:41.868Z,96.61
2018-09-01T06:23:41.867Z,94.12
2018-09-01T06:24:41.877Z,96.61
2018-09-01T06:25:41.875Z,95.12
2018-09-01T06:26:41.906Z,92.68
2018-09-01T06:27:41.864Z,90.39
2018-09-01T06:28:41.862Z,91.44
2018-09-01T06:29:41.866Z,91.10
2018-09-01T06:30:41.862Z,90.09
2018-09-01T06:31:41.891Z,89.23
2018-09-01T06:32:41.894Z,88.80
2018-09-01T06:33:41.859Z,88.32
2018-09-01T06:34:41.858Z,88.61
2018-09-01T06:35:41.863Z,89.04
2018-09-01T06:36:41.862Z,90.00
2018-09-01T06:37:41.957Z,89.04
2018-09-01T06:38:41.864Z,88.12
2018-09-01T06:39:41.866Z,86.30
2018-09-01T06:40:41.868Z,84.33
2018-09-01T06:41:41.987Z,84.14
2018-09-01T06:42:41.867Z,83.41
2018-09-01T06:43:41.864Z,81.30
2018-09-01T06:44:41.871Z,80.91
2018-09-01T06:45:41.874Z,80.43
2018-09-01T06:46:41.911Z,80.28
2018-09-01T06:47:41.871Z,80.09
2018-09-01T06:48:41.874Z,81.10
2018-09-01T06:49:41.877Z,80.96
2018-09-01T06:50:41.881Z,80.19
2018-09-01T06:51:41.914Z,77.98
2018-09-01T06:52:41.879Z,77.75
2018-09-01T06:53:41.881Z,78.47
2018-09-01T06:54:41.888Z,80.11
2018-09-01T06:55:41.888Z,80.93
2018-09-01T06:56:41.920Z,81.66
2018-09-01T06:57:41.889Z,83.82
2018-09-01T06:58:41.900Z,83.78
2018-09-01T06:59:41.896Z,85.12
2018-09-01T07:00:41.898Z,85.79
2018-09-01T07:01:41.926Z,85.25
2018-09-01T07:02:41.901Z,83.00
2018-09-01T07:03:41.901Z,80.47
2018-09-01T07:04:41.897Z,82.82
2018-09-01T07:05:41.904Z,83.92
2018-09-01T07:06:41.932Z,82.76
2018-09-01T07:07:41.907Z,82.81
2018-09-01T07:08:41.929Z,81.66
2018-09-01T07:09:41.907Z,80.35
2018-09-01T07:10:41.913Z,80.74
2018-09-01T07:11:41.942Z,79.16
2018-09-01T07:12:41.911Z,81.71
2018-09-01T07:13:41.918Z,83.78
2018-09-01T07:14:41.926Z,84.83
2018-09-01T07:15:41.930Z,84.97
2018-09-01T07:16:41.951Z,84.05
2018-09-01T07:17:41.930Z,84.28
2018-09-01T07:18:41.935Z,81.41
2018-09-01T07:19:41.931Z,81.41
2018-09-01T07:20:41.937Z,82.56
2018-09-01T07:21:41.993Z,81.12
2018-09-01T07:22:41.944Z,80.93
2018-09-01T07:23:41.954Z,80.07
2018-09-01T07:24:41.954Z,80.49
2018-09-01T07:25:41.972Z,80.58
2018-09-01T07:26:41.952Z,80.53
2018-09-01T07:27:41.950Z,76.82
2018-09-01T07:28:41.988Z,75.38
2018-09-01T07:29:41.960Z,75.52
2018-09-01T07:30:42.171Z,74.21
2018-09-01T07:31:41.995Z,73.44
2018-09-01T07:32:41.969Z,71.84
2018-09-01T07:33:41.974Z,73.15
2018-09-01T07:34:41.976Z,72.77
2018-09-01T07:35:41.981Z,75.56
2018-09-01T07:36:42.013Z,80.04
2018-09-01T07:37:41.990Z,77.40
2018-09-01T07:38:41.988Z,79.01
2018-09-01T07:39:41.998Z,83.19
2018-09-01T07:40:41.996Z,85.67
2018-09-01T07:41:42.036Z,81.15
2018-09-01T07:42:42.018Z,77.00
2018-09-01T07:43:42.022Z,77.58
2018-09-01T07:44:42.016Z,76.01
2018-09-01T07:45:42.054Z,74.34
2018-09-01T07:46:42.030Z,75.24
2018-09-01T07:47:42.031Z,73.16
2018-09-01T07:48:42.039Z,72.24
2018-09-01T07:49:42.046Z,71.98
2018-09-01T07:50:42.085Z,70.19
2018-09-01T07:51:42.053Z,70.64
2018-09-01T07:52:42.059Z,69.48
2018-09-01T07:53:42.078Z,70.09
2018-09-01T07:54:42.120Z,71.53
2018-09-01T07:55:42.102Z,71.49
2018-09-01T07:56:42.102Z,73.22
2018-09-01T07:57:42.091Z,72.07
2018-09-01T07:58:42.101Z,72.84
2018-09-01T07:59:42.103Z,74.63
2018-09-01T08:00:42.142Z,75.75
2018-09-01T08:01:42.125Z,75.37
2018-09-01T08:02:42.126Z,78.06
2018-09-01T08:03:42.135Z,75.94
2018-09-01T08:04:42.167Z,77.19
2018-09-01T08:05:42.151Z,76.42
2018-09-01T08:06:42.156Z,79.17
2018-09-01T08:07:42.157Z,79.94
2018-09-01T08:08:42.160Z,78.30
2018-09-01T08:09:42.219Z,78.50
2018-09-01T08:10:42.178Z,77.19
2018-09-01T08:11:42.182Z,76.23
2018-09-01T08:12:42.188Z,74.79
2018-09-01T08:13:42.261Z,74.50
2018-09-01T08:14:42.269Z,75.40
2018-09-01T08:15:42.206Z,72.74
2018-09-01T08:16:42.213Z,75.21
2018-09-01T08:17:42.222Z,75.69
2018-09-01T08:18:42.231Z,76.40
2018-09-01T08:19:42.286Z,76.82
2018-09-01T08:20:42.245Z,71.91
2018-09-01T08:21:42.246Z,71.91
2018-09-01T08:22:42.265Z,73.32
2018-09-01T08:23:42.258Z,76.50
2018-09-01T08:24:42.298Z,74.71
2018-09-01T08:25:42.271Z,72.43
2018-09-01T08:26:42.287Z,73.49
2018-09-01T08:27:42.287Z,70.06
2018-09-01T08:28:42.298Z,67.88
2018-09-01T08:29:42.335Z,67.43
2018-09-01T08:30:42.318Z,66.75
2018-09-01T08:31:42.327Z,66.85
2018-09-01T08:32:42.335Z,66.75
2018-09-01T08:33:42.416Z,66.56
2018-09-01T08:34:42.379Z,66.75
2018-09-01T08:35:42.364Z,66.01
2018-09-01T08:36:42.371Z,66.69
2018-09-01T08:37:42.377Z,65.78
2018-09-01T08:38:42.392Z,66.53
2018-09-01T08:39:42.427Z,67.97
2018-09-01T08:40:42.440Z,67.40
2018-09-01T08:41:42.419Z,67.91
2018-09-01T08:42:42.432Z,64.56
2018-09-01T08:43:42.438Z,63.18
2018-09-01T08:44:42.477Z,60.66
2018-09-01T08:45:42.458Z,63.53
2018-09-01T08:46:42.472Z,63.31
2018-09-01T08:47:42.480Z,64.43
2018-09-01T08:48:42.499Z,69.99
2018-09-01T08:49:42.531Z,71.04
2018-09-01T08:50:42.551Z,71.78
2018-09-01T08:51:42.546Z,75.79
2018-09-01T08:52:42.536Z,77.09
2018-09-01T08:53:42.544Z,77.34
2018-09-01T08:54:42.587Z,76.64
2018-09-01T08:55:42.617Z,78.50
2018-09-01T08:56:42.635Z,78.55
2018-09-01T08:57:42.583Z,77.59
2018-09-01T08:58:42.597Z,77.09
2018-09-01T08:59:42.601Z,76.71
2018-09-01T09:00:42.642Z,75.49
2018-09-01T09:01:42.623Z,75.17
2018-09-01T09:02:42.631Z,77.48
2018-09-01T09:03:42.639Z,76.23
2018-09-01T09:04:42.679Z,78.86
2018-09-01T09:05:42.776Z,75.63
2018-09-01T09:06:42.692Z,73.30
2018-09-01T09:07:42.674Z,71.72
2018-09-01T09:08:42.681Z,72.59
2018-09-01T09:09:42.719Z,72.55
2018-09-01T09:10:42.728Z,73.07
2018-09-01T09:11:42.800Z,71.50
2018-09-01T09:12:42.719Z,69.71
2018-09-01T09:13:42.724Z,68.39
2018-09-01T09:14:42.767Z,67.16
2018-09-01T09:15:42.768Z,69.95
2018-09-01T09:16:42.756Z,73.96
2018-09-01T09:17:42.763Z,74.50
2018-09-01T09:18:42.827Z,75.71
2018-09-01T09:19:42.809Z,75.07
2018-09-01T09:20:42.793Z,74.81
2018-09-01T09:21:42.932Z,76.54
2018-09-01T09:22:42.804Z,77.40
2018-09-01T09:23:42.812Z,76.96
2018-09-01T09:24:42.847Z,76.61
2018-09-01T09:25:42.828Z,76.75
2018-09-01T09:26:42.839Z,75.49
2018-09-01T09:27:42.845Z,75.19
2018-09-01T09:28:42.849Z,71.34
2018-09-01T09:29:42.891Z,71.88
2018-09-01T09:30:42.881Z,73.19
2018-09-01T09:31:42.883Z,74.48
2018-09-01T09:32:42.887Z,74.29
2018-09-01T09:33:42.897Z,72.36
2018-09-01T09:34:42.918Z,72.52
2018-09-01T09:35:44.866Z,75.56
2018-09-01T09:36:42.910Z,75.52
2018-09-01T09:37:42.920Z,73.88
2018-09-01T09:38:42.923Z,75.96
2018-09-01T09:39:42.958Z,78.55
2018-09-01T09:40:42.983Z,78.42
2018-09-01T09:41:42.980Z,78.42
2018-09-01T09:42:42.950Z,77.40
2018-09-01T09:43:42.955Z,76.64
2018-09-01T09:44:42.988Z,75.56
2018-09-01T09:45:42.968Z,72.71
2018-09-01T09:46:42.975Z,70.53
2018-09-01T09:47:45.875Z,72.11
2018-09-01T09:48:42.990Z,70.54
2018-09-01T09:49:43.026Z,67.30
2018-09-01T09:50:43.002Z,67.49
2018-09-01T09:51:43.007Z,67.16
2018-09-01T09:52:43.016Z,65.33
2018-09-01T09:53:43.032Z,66.39
2018-09-01T09:54:43.066Z,66.72
2018-09-01T09:55:43.040Z,65.27
2018-09-01T09:56:43.056Z,65.01
2018-09-01T09:57:43.061Z,64.05
2018-09-01T09:58:43.106Z,64.11
2018-09-01T09:59:43.088Z,65.85
2018-09-01T10:00:43.100Z,67.30
2018-09-01T10:01:43.217Z,66.20
2018-09-01T10:02:43.123Z,65.14
2018-09-01T10:03:43.165Z,66.46
2018-09-01T10:04:43.146Z,66.81
2018-09-01T10:05:43.224Z,68.19
2018-09-01T10:06:43.170Z,70.40
2018-09-01T10:07:43.182Z,69.67
2018-09-01T10:08:43.225Z,68.06
2018-09-01T10:09:43.215Z,67.80
2018-09-01T10:10:44.016Z,70.17
2018-09-01T10:11:43.231Z,73.88
2018-09-01T10:12:43.243Z,74.17
2018-09-01T10:13:43.283Z,73.83
2018-09-01T10:14:43.262Z,75.37
2018-09-01T10:15:43.312Z,74.85
2018-09-01T10:16:43.977Z,74.65
2018-09-01T10:17:43.564Z,74.27
2018-09-01T10:18:43.885Z,74.55
2018-09-01T10:19:43.579Z,75.23
2018-09-01T10:20:43.888Z,74.37
2018-09-01T10:21:44.060Z,73.69
2018-09-01T10:22:43.340Z,75.56
2018-09-01T10:23:44.924Z,74.88
2018-09-01T10:24:44.625Z,74.40
2018-09-01T10:25:43.597Z,73.79
2018-09-01T10:26:43.555Z,75.23
2018-09-01T10:27:43.382Z,75.13
2018-09-01T10:28:43.397Z,74.85
2018-09-01T10:29:43.428Z,74.37
2018-09-01T10:30:43.421Z,70.65
2018-09-01T10:31:43.446Z,70.56
2018-09-01T10:32:43.418Z,69.91
2018-09-01T10:33:43.419Z,71.45
2018-09-01T10:34:43.459Z,72.38
2018-09-01T10:35:43.461Z,72.58
2018-09-01T10:36:43.441Z,72.23
2018-09-01T10:37:43.447Z,71.55
2018-09-01T10:38:43.459Z,71.49
2018-09-01T10:39:43.461Z,71.20
2018-09-01T10:40:43.493Z,71.59
2018-09-01T10:41:43.470Z,69.70
2018-09-01T10:42:43.481Z,70.76
2018-09-01T10:43:43.488Z,68.29
2018-09-01T10:44:43.524Z,66.78
2018-09-01T10:45:43.500Z,67.16
2018-09-01T10:46:43.538Z,67.26
2018-09-01T10:47:43.510Z,66.36
2018-09-01T10:48:43.519Z,64.15
2018-09-01T10:49:43.625Z,63.85
2018-09-01T10:50:43.690Z,64.43
2018-09-01T10:51:44.419Z,64.53
2018-09-01T10:52:44.948Z,65.37
2018-09-01T10:53:44.549Z,68.41
2018-09-01T10:54:43.578Z,67.83
2018-09-01T10:55:43.609Z,67.07
2018-09-01T10:56:43.582Z,66.39
2018-09-01T10:57:43.586Z,67.65
2018-09-01T10:58:43.666Z,66.46
2018-09-01T10:59:43.623Z,67.45
2018-09-01T11:00:43.641Z,67.55
2018-09-01T11:01:43.624Z,65.08
2018-09-01T11:02:43.630Z,64.47
2018-09-01T11:03:43.634Z,67.35
2018-09-01T11:04:43.643Z,66.62
2018-09-01T11:05:43.769Z,66.07
2018-09-01T11:06:43.654Z,67.93
2018-09-01T11:07:43.662Z,65.75
2018-09-01T11:08:43.667Z,65.40
2018-09-01T11:09:43.682Z,65.81
2018-09-01T11:10:43.707Z,64.50
2018-09-01T11:11:43.686Z,61.57
2018-09-01T11:12:43.695Z,59.28
2018-09-01T11:13:43.708Z,58.54
2018-09-01T11:14:43.719Z,58.80
2018-09-01T11:15:43.755Z,58.87
2018-09-01T11:16:43.738Z,59.55
2018-09-01T11:17:43.776Z,60.51
2018-09-01T11:18:43.755Z,60.31
2018-09-01T11:19:43.775Z,59.93
2018-09-01T11:20:43.793Z,61.16
2018-09-01T11:21:43.822Z,60.55
2018-09-01T11:22:43.799Z,60.35
2018-09-01T11:23:43.804Z,61.58
2018-09-01T11:24:43.814Z,61.99
2018-09-01T11:25:43.820Z,63.41
2018-09-01T11:26:43.864Z,62.15
2018-09-01T11:27:43.902Z,63.31
2018-09-01T11:28:43.849Z,64.37
2018-09-01T11:29:43.858Z,63.79
2018-09-01T11:30:43.945Z,64.37
2018-09-01T11:31:43.903Z,63.79
2018-09-01T11:32:43.894Z,63.95
2018-09-01T11:33:43.929Z,66.04
2018-09-01T11:34:43.897Z,66.62
2018-09-01T11:35:43.906Z,66.68
2018-09-01T11:36:43.957Z,64.69
2018-09-01T11:37:43.922Z,64.02
2018-09-01T11:38:43.930Z,65.05
2018-09-01T11:39:43.934Z,65.91
2018-09-01T11:40:43.959Z,67.74
2018-09-01T11:41:43.976Z,68.41
2018-09-01T11:42:44.068Z,67.65
2018-09-01T11:43:43.963Z,68.48
2018-09-01T11:44:43.971Z,68.54
2018-09-01T11:45:43.975Z,68.57
2018-09-01T11:46:44.012Z,68.76
2018-09-01T11:47:43.994Z,68.38
2018-09-01T11:48:44.005Z,67.80
2018-09-01T11:49:44.004Z,68.06
2018-09-01T11:50:44.009Z,67.71
2018-09-01T11:51:44.040Z,67.48
2018-09-01T11:52:44.021Z,67.58
2018-09-01T11:53:44.115Z,68.92
2018-09-01T11:54:44.034Z,68.60
2018-09-01T11:55:44.037Z,69.40
2018-09-01T11:56:44.069Z,70.27
2018-09-01T11:57:44.048Z,69.08
2018-09-01T11:58:44.100Z,69.50
2018-09-01T11:59:44.061Z,69.73
2018-09-01T12:00:44.066Z,67.99
2018-09-01T12:01:44.097Z,67.71
2018-09-01T12:02:44.077Z,67.68
2018-09-01T12:03:44.079Z,68.73
2018-09-01T12:04:44.086Z,69.98
2018-09-01T12:05:44.091Z,66.91
2018-09-01T12:06:44.130Z,67.35
2018-09-01T12:07:44.102Z,67.54
2018-09-01T12:08:44.137Z,67.13
2018-09-01T12:09:44.112Z,68.28
2018-09-01T12:10:45.051Z,71.19
2018-09-01T12:11:44.147Z,69.85
2018-09-01T12:12:44.126Z,70.07
2018-09-01T12:13:44.131Z,68.25
2018-09-01T12:14:44.139Z,69.31
2018-09-01T12:15:44.152Z,68.54
2018-09-01T12:16:44.171Z,70.46
2018-09-01T12:17:44.151Z,69.79
2018-09-01T12:18:44.770Z,68.25
2018-09-01T12:19:44.157Z,69.02
2018-09-01T12:20:44.162Z,69.31
2018-09-01T12:21:44.193Z,68.92
2018-09-01T12:22:44.168Z,68.21
2018-09-01T12:23:44.172Z,69.05
2018-09-01T12:24:44.178Z,70.01
2018-09-01T12:25:44.182Z,71.35
2018-09-01T12:26:44.214Z,71.10
2018-09-01T12:27:44.217Z,69.85
2018-09-01T12:28:44.201Z,69.14
2018-09-01T12:29:44.199Z,70.10
2018-09-01T12:30:44.221Z,70.33
2018-09-01T12:31:44.249Z,69.56
2018-09-01T12:32:44.216Z,69.85
2018-09-01T12:33:44.213Z,69.18
2018-09-01T12:34:44.218Z,70.56
2018-09-01T12:35:44.226Z,69.89
2018-09-01T12:36:44.255Z,69.12
2018-09-01T12:37:44.251Z,68.12
2018-09-01T12:38:44.231Z,69.02
2018-09-01T12:39:44.243Z,70.37
2018-09-01T12:40:44.242Z,70.56
2018-09-01T12:41:44.241Z,71.23
2018-09-01T12:42:44.274Z,69.18
2018-09-01T12:43:44.252Z,69.43
2018-09-01T12:44:44.256Z,68.76
2018-09-01T12:45:44.259Z,69.43
2018-09-01T12:46:44.271Z,69.72
2018-09-01T12:47:44.292Z,70.90
2018-09-01T12:48:44.274Z,70.33
2018-09-01T12:49:44.300Z,69.05
2018-09-01T12:50:44.286Z,69.91
2018-09-01T12:51:44.280Z,69.81
2018-09-01T12:52:44.312Z,69.91